sensor_id;sensor_type;location;lat;lon;timestamp;P1;P2;P0
57563;PMS7003;43400;45.926;6.724;2022-10-31T00:00:07;7.00;5.50;4.75
57563;PMS7003;43400;45.926;6.724;2022-10-31T00:02:40;8.00;8.00;5.80
57563;PMS7003;43400;45.926;6.724;2022-10-31T00:05:11;7.00;7.00;5.00
57563;PMS7003;43400;45.926;6.724;2022-10-31T00:07:43;7.40;7.00;4.40
57563;PMS7003;43400;45.926;6.724;2022-10-31T00:10:15;8.20;8.00;6.60
57563;PMS7003;43400;45.926;6.724;2022-10-31T00:12:47;8.00;8.00;5.00
57563;PMS7003;43400;45.926;6.724;2022-10-31T00:15:20;5.60;5.60;4.00
57563;PMS7003;43400;45.926;6.724;2022-10-31T00:17:52;11.00;9.00;7.00
57563;PMS7003;43400;45.926;6.724;2022-10-31T00:20:24;9.20;8.60;5.00
57563;PMS7003;43400;45.926;6.724;2022-10-31T00:23:02;7.40;6.60;5.60
57563;PMS7003;43400;45.926;6.724;2022-10-31T00:25:36;7.00;7.00;5.00
57563;PMS7003;43400;45.926;6.724;2022-10-31T00:28:10;7.50;6.50;4.50
57563;PMS7003;43400;45.926;6.724;2022-10-31T00:30:42;7.00;7.00;5.00
57563;PMS7003;43400;45.926;6.724;2022-10-31T00:33:14;7.00;5.50;4.75
57563;PMS7003;43400;45.926;6.724;2022-10-31T00:35:49;5.00;4.50;3.00
57563;PMS7003;43400;45.926;6.724;2022-10-31T00:38:21;9.50;8.75;4.00
57563;PMS7003;43400;45.926;6.724;2022-10-31T00:40:53;9.25;6.50;4.00
57563;PMS7003;43400;45.926;6.724;2022-10-31T00:43:26;8.80;8.80;7.00
57563;PMS7003;43400;45.926;6.724;2022-10-31T00:45:58;12.50;10.25;7.75
57563;PMS7003;43400;45.926;6.724;2022-10-31T00:48:29;8.80;8.80;6.20
57563;PMS7003;43400;45.926;6.724;2022-10-31T00:51:02;13.40;13.00;8.40
57563;PMS7003;43400;45.926;6.724;2022-10-31T00:53:34;12.75;11.00;9.00
57563;PMS7003;43400;45.926;6.724;2022-10-31T00:56:06;14.00;11.00;5.00
57563;PMS7003;43400;45.926;6.724;2022-10-31T00:58:38;9.00;9.00;4.50
57563;PMS7003;43400;45.926;6.724;2022-10-31T01:01:10;7.80;6.60;5.60
57563;PMS7003;43400;45.926;6.724;2022-10-31T01:03:41;9.75;9.25;5.50
57563;PMS7003;43400;45.926;6.724;2022-10-31T01:06:13;7.75;5.00;5.00
57563;PMS7003;43400;45.926;6.724;2022-10-31T01:08:46;8.00;8.00;5.00
57563;PMS7003;43400;45.926;6.724;2022-10-31T01:11:22;8.60;8.00;5.00
57563;PMS7003;43400;45.926;6.724;2022-10-31T01:13:54;7.20;5.40;4.60
57563;PMS7003;43400;45.926;6.724;2022-10-31T01:16:26;7.75;7.00;5.00
57563;PMS7003;43400;45.926;6.724;2022-10-31T01:18:59;4.25;4.25;4.00
57563;PMS7003;43400;45.926;6.724;2022-10-31T01:21:32;8.00;8.00;4.40
57563;PMS7003;43400;45.926;6.724;2022-10-31T01:24:04;7.80;6.60;4.00
57563;PMS7003;43400;45.926;6.724;2022-10-31T01:26:36;8.00;7.00;6.50
57563;PMS7003;43400;45.926;6.724;2022-10-31T01:29:07;6.50;6.50;5.00
57563;PMS7003;43400;45.926;6.724;2022-10-31T01:31:40;8.00;8.00;7.00
57563;PMS7003;43400;45.926;6.724;2022-10-31T01:34:16;10.60;9.00;6.60
57563;PMS7003;43400;45.926;6.724;2022-10-31T01:36:48;9.40;8.60;7.00
57563;PMS7003;43400;45.926;6.724;2022-10-31T01:39:20;8.50;8.50;5.00
57563;PMS7003;43400;45.926;6.724;2022-10-31T01:41:52;7.50;7.50;5.25
57563;PMS7003;43400;45.926;6.724;2022-10-31T01:46:57;9.50;8.50;5.00
57563;PMS7003;43400;45.926;6.724;2022-10-31T01:49:55;5.00;4.25;3.75
57563;PMS7003;43400;45.926;6.724;2022-10-31T01:52:33;7.50;7.50;5.00
57563;PMS7003;43400;45.926;6.724;2022-10-31T01:55:12;8.00;7.00;4.00
57563;PMS7003;43400;45.926;6.724;2022-10-31T01:57:51;7.00;7.00;4.00
57563;PMS7003;43400;45.926;6.724;2022-10-31T02:00:25;7.00;7.00;5.40
57563;PMS7003;43400;45.926;6.724;2022-10-31T02:02:57;7.20;6.20;5.60
57563;PMS7003;43400;45.926;6.724;2022-10-31T02:05:29;6.00;4.50;4.00
57563;PMS7003;43400;45.926;6.724;2022-10-31T02:08:25;4.40;4.40;4.40
57563;PMS7003;43400;45.926;6.724;2022-10-31T02:11:04;7.75;6.75;4.00
57563;PMS7003;43400;45.926;6.724;2022-10-31T02:13:37;7.40;7.40;5.60
57563;PMS7003;43400;45.926;6.724;2022-10-31T02:16:09;10.20;7.60;5.60
57563;PMS7003;43400;45.926;6.724;2022-10-31T02:18:41;14.00;14.00;8.00
57563;PMS7003;43400;45.926;6.724;2022-10-31T02:38:13;10.00;10.00;6.00
57563;PMS7003;43400;45.926;6.724;2022-10-31T02:43:40;6.25;6.25;5.50
57563;PMS7003;43400;45.926;6.724;2022-10-31T02:49:45;8.20;7.00;4.80
57563;PMS7003;43400;45.926;6.724;2022-10-31T02:52:28;6.00;4.00;3.25
57563;PMS7003;43400;45.926;6.724;2022-10-31T02:55:42;6.00;4.00;3.00
57563;PMS7003;43400;45.926;6.724;2022-10-31T02:58:22;6.00;6.00;3.00
57563;PMS7003;43400;45.926;6.724;2022-10-31T03:09:14;8.00;8.00;6.00
57563;PMS7003;43400;45.926;6.724;2022-10-31T03:14:39;12.00;9.00;7.00
57563;PMS7003;43400;45.926;6.724;2022-10-31T03:17:28;15.25;13.50;9.50
57563;PMS7003;43400;45.926;6.724;2022-10-31T03:20:07;12.25;10.00;8.00
57563;PMS7003;43400;45.926;6.724;2022-10-31T03:22:41;13.25;12.00;8.00
57563;PMS7003;43400;45.926;6.724;2022-10-31T03:25:14;17.00;16.00;9.75
57563;PMS7003;43400;45.926;6.724;2022-10-31T03:27:48;10.00;10.00;7.60
57563;PMS7003;43400;45.926;6.724;2022-10-31T03:30:22;10.40;9.00;7.00
57563;PMS7003;43400;45.926;6.724;2022-10-31T03:32:54;8.00;6.00;4.00
57563;PMS7003;43400;45.926;6.724;2022-10-31T03:35:28;8.25;6.75;6.00
57563;PMS7003;43400;45.926;6.724;2022-10-31T03:38:01;6.20;6.20;4.00
57563;PMS7003;43400;45.926;6.724;2022-10-31T03:40:34;7.20;7.20;5.60
57563;PMS7003;43400;45.926;6.724;2022-10-31T03:43:12;6.80;6.80;5.20
57563;PMS7003;43400;45.926;6.724;2022-10-31T03:45:49;5.00;4.60;3.60
57563;PMS7003;43400;45.926;6.724;2022-10-31T03:48:21;7.75;6.75;3.75
57563;PMS7003;43400;45.926;6.724;2022-10-31T03:53:51;4.40;4.40;3.60
57563;PMS7003;43400;45.926;6.724;2022-10-31T03:56:42;4.00;3.00;3.00
57563;PMS7003;43400;45.926;6.724;2022-10-31T04:02:03;6.25;5.50;4.00
57563;PMS7003;43400;45.926;6.724;2022-10-31T04:04:38;5.60;4.40;3.80
57563;PMS7003;43400;45.926;6.724;2022-10-31T04:07:10;4.80;4.80;3.40
57563;PMS7003;43400;45.926;6.724;2022-10-31T04:09:44;6.80;6.80;4.00
57563;PMS7003;43400;45.926;6.724;2022-10-31T04:12:18;7.50;7.50;6.00
57563;PMS7003;43400;45.926;6.724;2022-10-31T04:14:52;10.50;8.25;5.50
57563;PMS7003;43400;45.926;6.724;2022-10-31T04:17:27;6.00;6.00;4.00
57563;PMS7003;43400;45.926;6.724;2022-10-31T04:20:01;7.00;6.00;4.00
57563;PMS7003;43400;45.926;6.724;2022-10-31T04:22:33;6.00;6.00;4.00
57563;PMS7003;43400;45.926;6.724;2022-10-31T04:25:05;7.00;7.00;4.40
57563;PMS7003;43400;45.926;6.724;2022-10-31T04:27:37;6.40;6.40;3.40
57563;PMS7003;43400;45.926;6.724;2022-10-31T04:30:09;5.60;5.60;4.00
57563;PMS7003;43400;45.926;6.724;2022-10-31T04:32:41;6.25;6.00;3.25
57563;PMS7003;43400;45.926;6.724;2022-10-31T04:35:12;7.00;6.25;4.00
57563;PMS7003;43400;45.926;6.724;2022-10-31T04:37:44;5.50;5.50;3.25
57563;PMS7003;43400;45.926;6.724;2022-10-31T04:40:15;5.50;5.50;3.75
57563;PMS7003;43400;45.926;6.724;2022-10-31T04:42:47;4.00;4.00;3.00
57563;PMS7003;43400;45.926;6.724;2022-10-31T04:45:18;3.20;3.20;2.80
57563;PMS7003;43400;45.926;6.724;2022-10-31T04:47:51;4.00;4.00;3.00
57563;PMS7003;43400;45.926;6.724;2022-10-31T04:50:22;7.00;3.25;3.00
57563;PMS7003;43400;45.926;6.724;2022-10-31T04:52:54;4.00;4.00;3.00
57563;PMS7003;43400;45.926;6.724;2022-10-31T04:55:25;4.00;4.00;3.20
57563;PMS7003;43400;45.926;6.724;2022-10-31T04:57:57;3.00;3.00;2.00
57563;PMS7003;43400;45.926;6.724;2022-10-31T05:00:29;3.00;3.00;2.25
57563;PMS7003;43400;45.926;6.724;2022-10-31T05:03:00;5.50;4.00;3.00
57563;PMS7003;43400;45.926;6.724;2022-10-31T05:05:32;4.00;4.00;2.00
57563;PMS7003;43400;45.926;6.724;2022-10-31T05:08:04;4.60;3.80;3.00
57563;PMS7003;43400;45.926;6.724;2022-10-31T05:10:35;4.00;4.00;3.00
57563;PMS7003;43400;45.926;6.724;2022-10-31T05:13:07;3.25;3.00;2.00
57563;PMS7003;43400;45.926;6.724;2022-10-31T05:15:39;3.25;2.25;2.00
57563;PMS7003;43400;45.926;6.724;2022-10-31T05:18:11;6.25;6.00;3.00
57563;PMS7003;43400;45.926;6.724;2022-10-31T05:20:43;6.00;4.00;3.00
57563;PMS7003;43400;45.926;6.724;2022-10-31T05:23:14;6.00;6.00;3.25
57563;PMS7003;43400;45.926;6.724;2022-10-31T05:25:46;3.75;3.75;2.75
57563;PMS7003;43400;45.926;6.724;2022-10-31T05:28:17;5.20;3.60;3.20
57563;PMS7003;43400;45.926;6.724;2022-10-31T05:30:49;4.40;3.00;2.20
57563;PMS7003;43400;45.926;6.724;2022-10-31T05:33:20;3.00;3.00;3.00
57563;PMS7003;43400;45.926;6.724;2022-10-31T05:35:51;6.00;4.00;3.00
57563;PMS7003;43400;45.926;6.724;2022-10-31T05:38:23;7.00;6.25;4.00
57563;PMS7003;43400;45.926;6.724;2022-10-31T05:40:55;4.00;4.00;3.00
57563;PMS7003;43400;45.926;6.724;2022-10-31T05:43:27;3.40;3.40;3.00
57563;PMS7003;43400;45.926;6.724;2022-10-31T05:45:59;5.50;4.00;3.00
57563;PMS7003;43400;45.926;6.724;2022-10-31T05:48:30;4.00;3.75;2.75
57563;PMS7003;43400;45.926;6.724;2022-10-31T05:51:02;4.00;3.00;3.00
57563;PMS7003;43400;45.926;6.724;2022-10-31T05:53:33;7.25;5.50;3.75
57563;PMS7003;43400;45.926;6.724;2022-10-31T05:56:05;4.00;3.00;3.00
57563;PMS7003;43400;45.926;6.724;2022-10-31T05:58:36;6.00;6.00;4.00
57563;PMS7003;43400;45.926;6.724;2022-10-31T06:01:08;11.00;11.00;7.20
57563;PMS7003;43400;45.926;6.724;2022-10-31T06:03:39;8.00;8.00;6.00
57563;PMS7003;43400;45.926;6.724;2022-10-31T06:06:11;3.20;3.20;2.20
57563;PMS7003;43400;45.926;6.724;2022-10-31T06:08:42;2.80;2.80;2.00
57563;PMS7003;43400;45.926;6.724;2022-10-31T06:11:14;2.60;2.60;2.00
57563;PMS7003;43400;45.926;6.724;2022-10-31T06:13:46;2.80;2.80;2.00
57563;PMS7003;43400;45.926;6.724;2022-10-31T06:16:17;3.25;2.25;2.00
57563;PMS7003;43400;45.926;6.724;2022-10-31T06:18:49;6.00;5.20;4.00
57563;PMS7003;43400;45.926;6.724;2022-10-31T06:21:21;8.25;7.25;4.50
57563;PMS7003;43400;45.926;6.724;2022-10-31T06:23:52;9.00;8.80;6.00
57563;PMS7003;43400;45.926;6.724;2022-10-31T06:26:24;11.80;11.80;8.80
57563;PMS7003;43400;45.926;6.724;2022-10-31T06:28:55;17.00;13.40;11.00
57563;PMS7003;43400;45.926;6.724;2022-10-31T06:31:27;13.50;10.50;7.50
57563;PMS7003;43400;45.926;6.724;2022-10-31T06:33:58;8.50;7.50;6.00
57563;PMS7003;43400;45.926;6.724;2022-10-31T06:36:30;7.60;5.60;4.00
57563;PMS7003;43400;45.926;6.724;2022-10-31T06:39:02;4.00;4.00;3.50
57563;PMS7003;43400;45.926;6.724;2022-10-31T06:41:33;3.75;3.00;2.00
57563;PMS7003;43400;45.926;6.724;2022-10-31T06:44:05;4.00;3.00;2.00
57563;PMS7003;43400;45.926;6.724;2022-10-31T06:46:37;2.60;2.60;2.00
57563;PMS7003;43400;45.926;6.724;2022-10-31T06:49:08;6.00;5.60;3.20
57563;PMS7003;43400;45.926;6.724;2022-10-31T06:51:40;7.20;6.80;4.40
57563;PMS7003;43400;45.926;6.724;2022-10-31T06:54:12;3.00;3.00;2.00
57563;PMS7003;43400;45.926;6.724;2022-10-31T06:56:46;3.00;3.00;2.25
57563;PMS7003;43400;45.926;6.724;2022-10-31T06:59:18;4.00;4.00;3.00
57563;PMS7003;43400;45.926;6.724;2022-10-31T07:01:50;2.00;2.00;2.00
57563;PMS7003;43400;45.926;6.724;2022-10-31T07:04:21;6.25;4.50;3.00
57563;PMS7003;43400;45.926;6.724;2022-10-31T07:06:53;6.75;4.00;3.00
57563;PMS7003;43400;45.926;6.724;2022-10-31T07:09:24;4.00;4.00;3.00
57563;PMS7003;43400;45.926;6.724;2022-10-31T07:11:56;3.50;3.50;3.00
57563;PMS7003;43400;45.926;6.724;2022-10-31T07:14:27;3.00;3.00;2.00
57563;PMS7003;43400;45.926;6.724;2022-10-31T07:16:59;1.40;1.40;1.20
57563;PMS7003;43400;45.926;6.724;2022-10-31T07:19:30;4.00;4.00;3.33
57563;PMS7003;43400;45.926;6.724;2022-10-31T07:22:01;5.50;4.50;3.25
57563;PMS7003;43400;45.926;6.724;2022-10-31T07:24:33;4.50;4.50;4.00
57563;PMS7003;43400;45.926;6.724;2022-10-31T07:27:04;4.50;3.25;3.00
57563;PMS7003;43400;45.926;6.724;2022-10-31T07:29:36;7.80;7.00;4.00
57563;PMS7003;43400;45.926;6.724;2022-10-31T07:32:07;9.00;7.40;6.00
57563;PMS7003;43400;45.926;6.724;2022-10-31T07:34:39;10.00;9.00;6.75
57563;PMS7003;43400;45.926;6.724;2022-10-31T07:37:10;7.00;6.40;5.60
57563;PMS7003;43400;45.926;6.724;2022-10-31T07:39:42;6.00;6.00;4.00
57563;PMS7003;43400;45.926;6.724;2022-10-31T07:42:14;6.00;6.00;4.00
57563;PMS7003;43400;45.926;6.724;2022-10-31T07:44:45;4.40;4.40;4.00
57563;PMS7003;43400;45.926;6.724;2022-10-31T07:47:17;6.75;6.00;3.25
57563;PMS7003;43400;45.926;6.724;2022-10-31T07:49:48;4.80;4.00;3.00
57563;PMS7003;43400;45.926;6.724;2022-10-31T07:52:20;4.50;3.75;3.75
57563;PMS7003;43400;45.926;6.724;2022-10-31T07:54:52;6.25;6.25;6.00
57563;PMS7003;43400;45.926;6.724;2022-10-31T07:57:23;6.00;6.00;6.00
57563;PMS7003;43400;45.926;6.724;2022-10-31T07:59:55;7.00;7.00;6.00
57563;PMS7003;43400;45.926;6.724;2022-10-31T08:02:26;7.00;7.00;6.00
57563;PMS7003;43400;45.926;6.724;2022-10-31T08:04:58;7.00;6.60;4.00
57563;PMS7003;43400;45.926;6.724;2022-10-31T08:07:29;8.00;6.00;4.00
57563;PMS7003;43400;45.926;6.724;2022-10-31T08:10:06;7.00;6.20;4.00
57563;PMS7003;43400;45.926;6.724;2022-10-31T08:12:38;7.40;6.20;3.20
57563;PMS7003;43400;45.926;6.724;2022-10-31T08:15:09;7.00;6.00;4.00
57563;PMS7003;43400;45.926;6.724;2022-10-31T08:17:41;4.00;4.00;3.00
57563;PMS7003;43400;45.926;6.724;2022-10-31T08:20:12;7.40;6.80;4.00
57563;PMS7003;43400;45.926;6.724;2022-10-31T08:22:52;5.60;5.60;4.00
57563;PMS7003;43400;45.926;6.724;2022-10-31T08:25:24;6.00;4.00;3.00
57563;PMS7003;43400;45.926;6.724;2022-10-31T08:27:57;4.80;3.80;3.20
57563;PMS7003;43400;45.926;6.724;2022-10-31T08:30:31;6.00;6.00;4.50
57563;PMS7003;43400;45.926;6.724;2022-10-31T08:35:37;8.00;7.25;6.25
57563;PMS7003;43400;45.926;6.724;2022-10-31T08:38:09;7.00;7.00;3.20
57563;PMS7003;43400;45.926;6.724;2022-10-31T08:40:42;8.00;7.00;6.00
57563;PMS7003;43400;45.926;6.724;2022-10-31T08:43:14;7.00;6.25;4.00
57563;PMS7003;43400;45.926;6.724;2022-10-31T08:45:48;7.00;6.50;6.00
57563;PMS7003;43400;45.926;6.724;2022-10-31T08:48:20;7.00;6.00;4.00
57563;PMS7003;43400;45.926;6.724;2022-10-31T08:50:55;6.60;6.60;6.00
57563;PMS7003;43400;45.926;6.724;2022-10-31T08:53:28;8.00;6.00;4.00
57563;PMS7003;43400;45.926;6.724;2022-10-31T08:55:59;5.50;5.50;4.00
57563;PMS7003;43400;45.926;6.724;2022-10-31T08:58:31;3.00;3.00;3.00
57563;PMS7003;43400;45.926;6.724;2022-10-31T09:01:02;5.33;5.33;3.67
57563;PMS7003;43400;45.926;6.724;2022-10-31T09:03:34;4.00;4.00;3.00
57563;PMS7003;43400;45.926;6.724;2022-10-31T09:06:05;7.50;7.50;4.00
57563;PMS7003;43400;45.926;6.724;2022-10-31T09:08:37;6.00;5.20;3.60
57563;PMS7003;43400;45.926;6.724;2022-10-31T09:11:09;8.00;7.00;4.00
57563;PMS7003;43400;45.926;6.724;2022-10-31T09:13:41;3.60;3.60;3.00
57563;PMS7003;43400;45.926;6.724;2022-10-31T09:16:12;4.75;3.50;3.00
57563;PMS7003;43400;45.926;6.724;2022-10-31T09:18:43;3.00;3.00;3.00
57563;PMS7003;43400;45.926;6.724;2022-10-31T09:21:15;3.00;3.00;3.00
57563;PMS7003;43400;45.926;6.724;2022-10-31T09:23:47;4.40;4.40;3.00
57563;PMS7003;43400;45.926;6.724;2022-10-31T09:26:18;4.00;4.00;4.00
57563;PMS7003;43400;45.926;6.724;2022-10-31T09:28:50;4.00;4.00;3.25
57563;PMS7003;43400;45.926;6.724;2022-10-31T09:31:21;3.00;3.00;2.00
57563;PMS7003;43400;45.926;6.724;2022-10-31T09:33:53;3.00;3.00;2.75
57563;PMS7003;43400;45.926;6.724;2022-10-31T09:36:24;4.20;4.20;3.00
57563;PMS7003;43400;45.926;6.724;2022-10-31T09:38:56;5.00;4.00;3.40
57563;PMS7003;43400;45.926;6.724;2022-10-31T09:41:36;3.80;3.00;2.00
57563;PMS7003;43400;45.926;6.724;2022-10-31T09:47:29;3.00;3.00;2.20
57563;PMS7003;43400;45.926;6.724;2022-10-31T09:52:39;4.25;4.00;3.00
57563;PMS7003;43400;45.926;6.724;2022-10-31T09:55:18;2.75;2.75;2.00
57563;PMS7003;43400;45.926;6.724;2022-10-31T09:57:56;3.80;3.80;2.80
57563;PMS7003;43400;45.926;6.724;2022-10-31T10:00:31;3.00;3.00;2.00
57563;PMS7003;43400;45.926;6.724;2022-10-31T10:06:23;3.00;3.00;2.80
57563;PMS7003;43400;45.926;6.724;2022-10-31T10:08:58;4.00;3.00;3.00
57563;PMS7003;43400;45.926;6.724;2022-10-31T10:16:58;4.20;3.00;2.00
57563;PMS7003;43400;45.926;6.724;2022-10-31T10:23:11;3.00;2.75;2.00
57563;PMS7003;43400;45.926;6.724;2022-10-31T10:26:17;1.40;1.40;1.40
57563;PMS7003;43400;45.926;6.724;2022-10-31T10:28:52;2.00;2.00;2.00
57563;PMS7003;43400;45.926;6.724;2022-10-31T10:31:38;4.00;3.00;2.00
57563;PMS7003;43400;45.926;6.724;2022-10-31T10:36:57;2.00;2.00;1.00
57563;PMS7003;43400;45.926;6.724;2022-10-31T10:40:13;2.75;2.75;1.00
57563;PMS7003;43400;45.926;6.724;2022-10-31T10:59:47;2.00;2.00;1.00
57563;PMS7003;43400;45.926;6.724;2022-10-31T11:02:23;2.50;2.50;2.00
57563;PMS7003;43400;45.926;6.724;2022-10-31T11:04:57;3.00;2.00;1.00
57563;PMS7003;43400;45.926;6.724;2022-10-31T11:07:37;2.50;2.00;2.00
57563;PMS7003;43400;45.926;6.724;2022-10-31T11:10:13;3.00;2.00;2.00
57563;PMS7003;43400;45.926;6.724;2022-10-31T11:15:31;0.80;0.80;0.00
57563;PMS7003;43400;45.926;6.724;2022-10-31T11:18:12;2.00;2.00;1.00
57563;PMS7003;43400;45.926;6.724;2022-10-31T11:20:52;0.50;0.50;0.25
57563;PMS7003;43400;45.926;6.724;2022-10-31T11:23:27;1.25;1.25;0.50
57563;PMS7003;43400;45.926;6.724;2022-10-31T11:26:00;3.00;2.00;2.00
57563;PMS7003;43400;45.926;6.724;2022-10-31T11:28:33;1.80;1.20;1.00
57563;PMS7003;43400;45.926;6.724;2022-10-31T11:31:10;0.00;0.00;0.00
57563;PMS7003;43400;45.926;6.724;2022-10-31T11:33:45;2.25;2.25;1.75
57563;PMS7003;43400;45.926;6.724;2022-10-31T11:38:55;2.00;1.40;1.00
57563;PMS7003;43400;45.926;6.724;2022-10-31T11:41:30;3.00;3.00;2.00
57563;PMS7003;43400;45.926;6.724;2022-10-31T11:44:05;2.00;2.00;1.00
57563;PMS7003;43400;45.926;6.724;2022-10-31T11:46:48;3.00;2.00;2.00
57563;PMS7003;43400;45.926;6.724;2022-10-31T11:49:38;3.00;2.00;2.00
57563;PMS7003;43400;45.926;6.724;2022-10-31T11:52:23;2.00;2.00;1.60
57563;PMS7003;43400;45.926;6.724;2022-10-31T11:57:45;1.20;1.20;1.00
57563;PMS7003;43400;45.926;6.724;2022-10-31T12:00:27;3.00;2.00;1.00
57563;PMS7003;43400;45.926;6.724;2022-10-31T12:05:41;1.75;1.75;1.75
57563;PMS7003;43400;45.926;6.724;2022-10-31T12:08:15;2.00;2.00;1.20
57563;PMS7003;43400;45.926;6.724;2022-10-31T12:13:32;1.40;1.40;1.00
57563;PMS7003;43400;45.926;6.724;2022-10-31T12:16:12;2.00;2.00;2.00
57563;PMS7003;43400;45.926;6.724;2022-10-31T12:18:57;3.75;3.75;2.25
57563;PMS7003;43400;45.926;6.724;2022-10-31T12:30:31;2.00;2.00;1.50
57563;PMS7003;43400;45.926;6.724;2022-10-31T12:36:55;3.00;2.20;1.00
57563;PMS7003;43400;45.926;6.724;2022-10-31T12:45:39;2.40;2.40;1.40
57563;PMS7003;43400;45.926;6.724;2022-10-31T12:51:29;1.00;1.00;0.80
57563;PMS7003;43400;45.926;6.724;2022-10-31T12:57:13;1.20;1.20;1.00
57563;PMS7003;43400;45.926;6.724;2022-10-31T12:59:59;2.00;2.00;2.00
57563;PMS7003;43400;45.926;6.724;2022-10-31T13:02:42;2.00;1.00;0.00
57563;PMS7003;43400;45.926;6.724;2022-10-31T13:08:08;2.80;2.80;1.60
57563;PMS7003;43400;45.926;6.724;2022-10-31T13:13:48;3.00;2.00;1.25
57563;PMS7003;43400;45.926;6.724;2022-10-31T13:16:31;2.00;1.80;1.00
57563;PMS7003;43400;45.926;6.724;2022-10-31T13:19:29;1.75;1.75;1.00
57563;PMS7003;43400;45.926;6.724;2022-10-31T13:22:14;2.00;2.00;2.00
57563;PMS7003;43400;45.926;6.724;2022-10-31T13:25:02;1.60;1.60;1.40
57563;PMS7003;43400;45.926;6.724;2022-10-31T13:30:25;2.20;2.20;2.00
57563;PMS7003;43400;45.926;6.724;2022-10-31T13:33:03;2.00;1.50;0.50
57563;PMS7003;43400;45.926;6.724;2022-10-31T13:35:50;1.75;1.75;1.25
57563;PMS7003;43400;45.926;6.724;2022-10-31T13:46:58;2.80;2.60;1.60
57563;PMS7003;43400;45.926;6.724;2022-10-31T13:54:47;3.60;3.40;2.00
57563;PMS7003;43400;45.926;6.724;2022-10-31T14:00:03;3.60;3.60;2.60
57563;PMS7003;43400;45.926;6.724;2022-10-31T14:02:43;3.00;2.25;2.25
57563;PMS7003;43400;45.926;6.724;2022-10-31T14:05:22;3.00;3.00;2.00
57563;PMS7003;43400;45.926;6.724;2022-10-31T14:07:55;3.00;2.75;1.75
57563;PMS7003;43400;45.926;6.724;2022-10-31T14:10:32;2.75;2.75;2.25
57563;PMS7003;43400;45.926;6.724;2022-10-31T14:13:08;4.00;3.00;2.50
57563;PMS7003;43400;45.926;6.724;2022-10-31T14:16:04;2.00;2.00;1.00
57563;PMS7003;43400;45.926;6.724;2022-10-31T14:19:19;4.20;4.00;2.00
57563;PMS7003;43400;45.926;6.724;2022-10-31T14:21:52;4.00;4.00;3.75
57563;PMS7003;43400;45.926;6.724;2022-10-31T14:26:56;4.00;3.00;3.00
57563;PMS7003;43400;45.926;6.724;2022-10-31T14:29:49;3.80;3.60;3.00
57563;PMS7003;43400;45.926;6.724;2022-10-31T14:32:21;3.00;3.00;3.00
57563;PMS7003;43400;45.926;6.724;2022-10-31T14:40:24;3.40;3.40;3.00
57563;PMS7003;43400;45.926;6.724;2022-10-31T14:43:21;4.20;4.00;3.00
57563;PMS7003;43400;45.926;6.724;2022-10-31T14:46:35;3.00;3.00;3.00
57563;PMS7003;43400;45.926;6.724;2022-10-31T14:49:16;4.40;3.20;3.00
57563;PMS7003;43400;45.926;6.724;2022-10-31T14:52:04;3.00;3.00;2.25
57563;PMS7003;43400;45.926;6.724;2022-10-31T14:54:40;6.40;4.20;3.40
57563;PMS7003;43400;45.926;6.724;2022-10-31T14:57:22;4.00;4.00;3.00
57563;PMS7003;43400;45.926;6.724;2022-10-31T15:00:01;6.00;5.00;3.80
57563;PMS7003;43400;45.926;6.724;2022-10-31T15:02:40;5.25;5.25;5.00
57563;PMS7003;43400;45.926;6.724;2022-10-31T15:05:17;5.80;5.80;5.00
57563;PMS7003;43400;45.926;6.724;2022-10-31T15:07:56;6.00;5.00;4.75
57563;PMS7003;43400;45.926;6.724;2022-10-31T15:10:29;5.00;5.00;4.00
57563;PMS7003;43400;45.926;6.724;2022-10-31T15:13:20;6.00;5.00;5.00
57563;PMS7003;43400;45.926;6.724;2022-10-31T15:15:53;5.25;5.25;4.00
57563;PMS7003;43400;45.926;6.724;2022-10-31T15:18:26;7.50;6.50;5.25
57563;PMS7003;43400;45.926;6.724;2022-10-31T15:20:59;4.20;4.20;4.00
57563;PMS7003;43400;45.926;6.724;2022-10-31T15:23:30;4.00;4.00;4.00
57563;PMS7003;43400;45.926;6.724;2022-10-31T15:26:05;4.00;4.00;3.00
57563;PMS7003;43400;45.926;6.724;2022-10-31T15:28:37;5.40;5.00;4.00
57563;PMS7003;43400;45.926;6.724;2022-10-31T15:31:16;6.75;6.75;4.25
57563;PMS7003;43400;45.926;6.724;2022-10-31T15:33:48;6.60;6.20;5.00
57563;PMS7003;43400;45.926;6.724;2022-10-31T15:36:22;8.00;6.00;4.00
57563;PMS7003;43400;45.926;6.724;2022-10-31T15:38:55;7.75;6.75;5.00
57563;PMS7003;43400;45.926;6.724;2022-10-31T15:41:35;5.00;5.00;4.00
57563;PMS7003;43400;45.926;6.724;2022-10-31T15:44:33;7.20;6.00;4.20
57563;PMS7003;43400;45.926;6.724;2022-10-31T15:47:15;11.00;9.00;6.25
57563;PMS7003;43400;45.926;6.724;2022-10-31T15:49:49;6.67;6.67;6.00
57563;PMS7003;43400;45.926;6.724;2022-10-31T15:55:00;7.00;6.80;5.00
57563;PMS7003;43400;45.926;6.724;2022-10-31T15:57:41;8.75;7.25;5.25
57563;PMS7003;43400;45.926;6.724;2022-10-31T16:03:02;9.20;8.20;6.00
57563;PMS7003;43400;45.926;6.724;2022-10-31T16:05:39;10.50;8.75;5.00
57563;PMS7003;43400;45.926;6.724;2022-10-31T16:13:53;7.00;7.00;6.00
57563;PMS7003;43400;45.926;6.724;2022-10-31T16:16:31;6.80;6.80;5.60
57563;PMS7003;43400;45.926;6.724;2022-10-31T16:19:05;9.80;8.80;6.00
57563;PMS7003;43400;45.926;6.724;2022-10-31T16:21:50;6.60;6.60;5.00
57563;PMS7003;43400;45.926;6.724;2022-10-31T16:24:30;8.00;8.00;6.75
57563;PMS7003;43400;45.926;6.724;2022-10-31T16:27:05;6.00;6.00;5.00
57563;PMS7003;43400;45.926;6.724;2022-10-31T16:29:46;6.60;6.60;5.60
57563;PMS7003;43400;45.926;6.724;2022-10-31T16:32:26;7.00;6.00;5.50
57563;PMS7003;43400;45.926;6.724;2022-10-31T16:37:39;10.60;7.60;6.00
57563;PMS7003;43400;45.926;6.724;2022-10-31T16:40:12;12.40;10.80;7.80
57563;PMS7003;43400;45.926;6.724;2022-10-31T16:42:44;9.50;8.50;5.75
57563;PMS7003;43400;45.926;6.724;2022-10-31T16:45:17;10.40;10.40;7.00
57563;PMS7003;43400;45.926;6.724;2022-10-31T16:47:50;16.50;16.50;11.00
57563;PMS7003;43400;45.926;6.724;2022-10-31T16:50:25;15.20;15.00;10.00
57563;PMS7003;43400;45.926;6.724;2022-10-31T16:52:58;14.00;13.25;10.75
57563;PMS7003;43400;45.926;6.724;2022-10-31T16:55:29;13.75;13.75;11.00
57563;PMS7003;43400;45.926;6.724;2022-10-31T16:58:03;7.75;7.75;6.00
57563;PMS7003;43400;45.926;6.724;2022-10-31T17:00:34;12.00;11.00;8.00
57563;PMS7003;43400;45.926;6.724;2022-10-31T17:03:07;10.00;8.00;6.00
57563;PMS7003;43400;45.926;6.724;2022-10-31T17:05:39;9.25;9.00;7.00
57563;PMS7003;43400;45.926;6.724;2022-10-31T17:08:11;10.00;9.00;7.00
57563;PMS7003;43400;45.926;6.724;2022-10-31T17:10:42;13.00;12.00;9.00
57563;PMS7003;43400;45.926;6.724;2022-10-31T17:13:21;15.60;15.00;11.80
57563;PMS7003;43400;45.926;6.724;2022-10-31T17:15:56;15.75;15.75;11.25
57563;PMS7003;43400;45.926;6.724;2022-10-31T17:18:30;10.00;10.00;9.00
57563;PMS7003;43400;45.926;6.724;2022-10-31T17:21:02;10.80;10.00;7.00
57563;PMS7003;43400;45.926;6.724;2022-10-31T17:23:35;13.60;13.00;9.80
57563;PMS7003;43400;45.926;6.724;2022-10-31T17:26:06;16.20;14.60;11.80
57563;PMS7003;43400;45.926;6.724;2022-10-31T17:28:38;18.00;17.00;12.00
57563;PMS7003;43400;45.926;6.724;2022-10-31T17:31:13;13.00;12.80;11.00
57563;PMS7003;43400;45.926;6.724;2022-10-31T17:33:53;18.60;17.40;12.00
57563;PMS7003;43400;45.926;6.724;2022-10-31T17:36:26;17.40;16.60;12.00
57563;PMS7003;43400;45.926;6.724;2022-10-31T17:38:58;23.40;20.00;15.60
57563;PMS7003;43400;45.926;6.724;2022-10-31T17:41:31;16.80;16.20;12.00
57563;PMS7003;43400;45.926;6.724;2022-10-31T17:44:02;16.00;15.00;11.50
57563;PMS7003;43400;45.926;6.724;2022-10-31T17:46:34;18.00;17.00;12.00
57563;PMS7003;43400;45.926;6.724;2022-10-31T17:49:06;15.20;14.40;12.00
57563;PMS7003;43400;45.926;6.724;2022-10-31T17:51:38;25.50;25.50;20.00